createdAt,value
2022-09-23T00:01:04.815Z,99.90
2022-09-23T00:06:10.809Z,99.90
2022-09-23T00:11:17.239Z,99.90
2022-09-23T00:16:23.117Z,99.90
2022-09-23T00:21:26.507Z,99.90
2022-09-23T00:26:31.066Z,99.90
2022-09-23T00:31:34.831Z,99.90
2022-09-23T00:36:38.684Z,99.90
2022-09-23T00:41:43.287Z,99.90
2022-09-23T00:46:46.531Z,99.90
2022-09-23T00:51:55.260Z,99.90
2022-09-23T00:57:01.580Z,99.90
2022-09-23T01:02:05.801Z,99.90
2022-09-23T01:07:09.062Z,99.90
2022-09-23T01:12:23.509Z,99.90
2022-09-23T01:17:39.441Z,99.90
2022-09-23T01:22:50.078Z,99.90
2022-09-23T01:28:13.356Z,99.90
2022-09-23T01:33:25.195Z,99.90
2022-09-23T01:38:36.959Z,99.90
2022-09-23T01:43:48.166Z,99.90
2022-09-23T01:48:59.991Z,99.90
2022-09-23T01:54:08.421Z,99.90
2022-09-23T01:59:15.945Z,99.90
2022-09-23T02:04:26.305Z,99.90
2022-09-23T02:09:37.275Z,99.90
2022-09-23T02:14:48.527Z,99.90
2022-09-23T02:19:55.621Z,99.90
2022-09-23T02:24:59.493Z,99.90
2022-09-23T02:30:09.612Z,99.90
2022-09-23T02:35:18.993Z,99.90
2022-09-23T02:40:26.362Z,99.90
2022-09-23T02:45:29.824Z,99.90
2022-09-23T02:50:35.149Z,99.90
2022-09-23T02:55:38.339Z,99.90
2022-09-23T03:00:53.982Z,99.90
2022-09-23T03:06:01.997Z,99.90
2022-09-23T03:11:08.622Z,99.90
2022-09-23T03:16:18.181Z,99.90
2022-09-23T03:21:28.418Z,99.90
2022-09-23T03:26:35.140Z,99.90
2022-09-23T03:31:42.554Z,99.90
2022-09-23T03:36:53.972Z,99.90
2022-09-23T03:42:00.061Z,99.90
2022-09-23T03:47:04.544Z,99.90
2022-09-23T03:52:09.329Z,99.90
2022-09-23T03:57:13.381Z,99.90
2022-09-23T04:02:17.197Z,99.90
2022-09-23T04:07:21.773Z,99.90
2022-09-23T04:12:25.006Z,99.90
2022-09-23T04:17:28.470Z,99.90
2022-09-23T04:22:34.498Z,99.90
2022-09-23T04:27:38.130Z,99.90
2022-09-23T04:32:41.498Z,99.90
2022-09-23T04:37:49.136Z,99.90
2022-09-23T04:42:52.369Z,99.90
2022-09-23T04:47:58.482Z,99.90
2022-09-23T04:53:03.421Z,99.90
2022-09-23T04:58:07.641Z,99.90
2022-09-23T05:03:11.646Z,99.90
2022-09-23T05:08:16.390Z,99.90
2022-09-23T05:13:19.708Z,99.90
2022-09-23T05:18:22.890Z,99.90
2022-09-23T05:23:27.758Z,99.90
2022-09-23T05:28:32.986Z,99.90
2022-09-23T05:33:37.642Z,99.90
2022-09-23T05:38:42.397Z,99.90
2022-09-23T05:43:45.827Z,99.90
2022-09-23T05:48:49.117Z,99.90
2022-09-23T05:53:55.411Z,99.90
2022-09-23T05:59:00.585Z,99.90
2022-09-23T06:04:05.599Z,99.90
2022-09-23T06:09:13.476Z,99.90
2022-09-23T06:14:16.810Z,99.90
2022-09-23T06:19:20.047Z,99.90
2022-09-23T06:24:30.856Z,99.90
2022-09-23T06:29:34.685Z,99.90
2022-09-23T06:34:50.217Z,99.90
2022-09-23T06:39:56.666Z,99.90
2022-09-23T06:45:02.215Z,99.90
2022-09-23T06:50:05.995Z,99.90
2022-09-23T06:55:11.405Z,99.90
2022-09-23T07:00:15.585Z,99.90
2022-09-23T07:05:18.899Z,99.90
2022-09-23T07:10:23.485Z,99.90
2022-09-23T07:15:26.809Z,99.90
2022-09-23T07:20:30.024Z,99.90
2022-09-23T07:25:34.755Z,99.30
2022-09-23T07:30:39.273Z,99.90
2022-09-23T07:35:44.143Z,99.90
2022-09-23T07:40:49.223Z,98.70
2022-09-23T07:45:52.570Z,97.90
2022-09-23T07:50:55.917Z,96.10
2022-09-23T07:56:00.527Z,92.70
2022-09-23T08:01:06.851Z,95.90
2022-09-23T08:06:12.104Z,94.40
2022-09-23T08:11:16.742Z,92.80
2022-09-23T08:16:20.227Z,90.60
2022-09-23T08:21:24.341Z,92.00
2022-09-23T08:26:30.980Z,92.20
2022-09-23T08:31:34.192Z,91.10
2022-09-23T08:36:37.664Z,90.00
2022-09-23T08:41:52.884Z,87.00
2022-09-23T08:47:08.459Z,84.10
2022-09-23T08:52:18.765Z,83.20
2022-09-23T08:57:33.263Z,88.90
2022-09-23T09:02:37.724Z,85.70
2022-09-23T09:07:43.167Z,85.90
2022-09-23T09:12:50.463Z,84.00
2022-09-23T09:18:02.431Z,83.00
2022-09-23T09:23:16.160Z,82.20
2022-09-23T09:28:26.664Z,78.30
2022-09-23T09:33:38.564Z,77.80
2022-09-23T09:38:44.230Z,87.00
2022-09-23T09:43:59.270Z,87.50
2022-09-23T09:49:08.545Z,77.90
2022-09-23T09:54:20.561Z,75.60
2022-09-23T09:59:29.774Z,74.30
2022-09-23T10:04:36.473Z,71.50
2022-09-23T10:09:42.942Z,72.60
2022-09-23T10:14:50.606Z,67.10
2022-09-23T10:20:00.901Z,60.40
2022-09-23T10:25:08.783Z,64.40
2022-09-23T10:30:22.986Z,59.40
2022-09-23T10:35:27.112Z,63.60
2022-09-23T10:40:51.493Z,59.60
2022-09-23T10:46:20.683Z,59.50
2022-09-23T10:51:27.907Z,59.60
2022-09-23T10:56:36.688Z,55.30
2022-09-23T11:01:51.053Z,59.40
2022-09-23T11:07:22.961Z,53.40
2022-09-23T11:12:37.301Z,53.40
2022-09-23T11:18:07.803Z,52.70
2022-09-23T11:23:55.394Z,55.40
2022-09-23T11:29:21.082Z,52.50
2022-09-23T11:34:41.928Z,49.10
2022-09-23T11:39:50.673Z,50.90
2022-09-23T11:44:57.811Z,49.80
2022-09-23T11:50:06.712Z,48.70
2022-09-23T11:55:22.684Z,49.40
2022-09-23T12:00:30.309Z,49.40
2022-09-23T12:05:39.485Z,57.50
2022-09-23T12:10:51.017Z,52.90
2022-09-23T12:16:07.284Z,52.30
2022-09-23T12:21:53.320Z,58.40
2022-09-23T12:27:00.624Z,52.30
2022-09-23T12:32:07.504Z,52.30
2022-09-23T12:37:12.185Z,54.90
2022-09-23T12:42:19.023Z,53.10
2022-09-23T12:47:40.002Z,50.20
2022-09-23T12:52:44.613Z,49.20
2022-09-23T12:57:48.253Z,48.20
2022-09-23T13:03:16.030Z,50.30
2022-09-23T13:08:24.190Z,50.00
2022-09-23T13:13:31.750Z,48.80
2022-09-23T13:18:56.249Z,51.80
2022-09-23T13:24:20.890Z,47.20
2022-09-23T13:29:28.284Z,48.90
2022-09-23T13:34:34.027Z,47.30
2022-09-23T13:39:38.587Z,49.00
2022-09-23T13:44:42.304Z,46.30
2022-09-23T13:49:48.057Z,39.90
2022-09-23T13:54:52.718Z,40.50
2022-09-23T13:59:56.217Z,40.50
2022-09-23T14:04:59.636Z,43.10
2022-09-23T14:10:08.222Z,41.60
2022-09-23T14:15:15.613Z,40.80
2022-09-23T14:20:21.607Z,39.40
2022-09-23T14:25:26.642Z,39.00
2022-09-23T14:30:30.719Z,42.80
2022-09-23T14:35:42.861Z,39.10
2022-09-23T14:41:15.626Z,39.80
2022-09-23T14:46:20.445Z,38.60
2022-09-23T14:51:30.802Z,38.80
2022-09-23T14:56:43.389Z,43.00
2022-09-23T15:01:46.656Z,45.00
2022-09-23T15:06:54.333Z,41.50
2022-09-23T15:12:05.629Z,42.20
2022-09-23T15:17:19.250Z,42.20
2022-09-23T15:22:22.633Z,40.10
2022-09-23T15:27:34.735Z,38.90
2022-09-23T15:32:40.646Z,40.90
2022-09-23T15:37:44.190Z,39.10
2022-09-23T15:42:51.606Z,39.70
2022-09-23T15:47:55.847Z,42.60
2022-09-23T15:52:59.509Z,43.70
2022-09-23T15:58:04.134Z,46.40
2022-09-23T16:03:07.421Z,49.40
2022-09-23T16:08:11.747Z,52.80
2022-09-23T16:13:16.681Z,57.40
2022-09-23T16:18:20.211Z,59.70
2022-09-23T16:23:34.647Z,61.60
2022-09-23T16:28:39.563Z,64.30
2022-09-23T16:33:43.227Z,65.10
2022-09-23T16:38:47.372Z,66.10
2022-09-23T16:43:52.134Z,67.20
2022-09-23T16:48:56.268Z,67.40
2022-09-23T16:54:00.341Z,68.20
2022-09-23T16:59:05.362Z,71.70
2022-09-23T17:04:10.634Z,72.70
2022-09-23T17:09:13.947Z,73.90
2022-09-23T17:14:18.571Z,75.20
2022-09-23T17:19:21.752Z,78.20
2022-09-23T17:24:25.221Z,80.30
2022-09-23T17:29:30.397Z,83.90
2022-09-23T17:34:33.633Z,90.30
2022-09-23T17:39:36.879Z,92.60
2022-09-23T17:44:42.517Z,96.60
2022-09-23T17:49:46.997Z,99.90
2022-09-23T17:54:50.273Z,99.90
2022-09-23T17:59:56.124Z,99.90
2022-09-23T18:04:59.329Z,99.90
2022-09-23T18:10:02.555Z,99.90
2022-09-23T18:15:10.397Z,99.90
2022-09-23T18:20:13.613Z,99.90
2022-09-23T18:25:37.721Z,99.90
2022-09-23T18:30:44.399Z,99.90
2022-09-23T18:35:47.577Z,99.90
2022-09-23T18:40:54.298Z,99.90
2022-09-23T18:46:00.665Z,99.90
2022-09-23T18:51:03.981Z,99.90
2022-09-23T18:56:08.738Z,99.90
2022-09-23T19:01:13.793Z,99.90
2022-09-23T19:06:21.252Z,99.90
2022-09-23T19:11:25.430Z,99.90
2022-09-23T19:16:31.791Z,99.90
2022-09-23T19:21:35.471Z,99.90
2022-09-23T19:26:40.865Z,99.90
2022-09-23T19:31:45.587Z,99.90
2022-09-23T19:36:49.290Z,99.90
2022-09-23T19:41:54.525Z,99.90
2022-09-23T19:46:59.187Z,99.90
2022-09-23T19:52:02.765Z,99.90
2022-09-23T19:57:06.066Z,99.90
2022-09-23T20:02:12.625Z,99.90
2022-09-23T20:07:16.277Z,99.90
2022-09-23T20:12:19.474Z,99.90
2022-09-23T20:17:24.561Z,99.90
2022-09-23T20:22:33.103Z,99.90
2022-09-23T20:27:37.078Z,99.90
2022-09-23T20:32:44.618Z,99.90
2022-09-23T20:37:48.136Z,99.90
2022-09-23T20:42:51.362Z,99.90
2022-09-23T20:47:59.355Z,99.90
2022-09-23T20:53:02.664Z,99.90
2022-09-23T20:58:05.841Z,99.90
2022-09-23T21:03:10.422Z,99.90
2022-09-23T21:08:13.671Z,99.90
2022-09-23T21:13:16.880Z,99.90
2022-09-23T21:18:22.654Z,99.90
2022-09-23T21:23:27.332Z,99.90
2022-09-23T21:28:34.184Z,99.90
2022-09-23T21:33:38.893Z,99.90
2022-09-23T21:38:42.104Z,99.90
2022-09-23T21:43:45.642Z,99.90
2022-09-23T21:48:53.360Z,99.90
2022-09-23T21:53:58.250Z,99.90
2022-09-23T21:59:01.966Z,99.90
2022-09-23T22:04:10.295Z,99.90
2022-09-23T22:09:16.999Z,99.90
2022-09-23T22:14:26.180Z,99.90
2022-09-23T22:19:35.014Z,99.90
2022-09-23T22:24:38.678Z,99.90
2022-09-23T22:29:59.504Z,99.90
2022-09-23T22:35:04.456Z,99.90
2022-09-23T22:40:10.554Z,99.90
2022-09-23T22:45:14.480Z,99.90
2022-09-23T22:50:19.173Z,99.90
2022-09-23T22:55:22.402Z,99.90
2022-09-23T23:00:26.873Z,99.90
2022-09-23T23:05:32.156Z,99.90
2022-09-23T23:10:37.754Z,99.90
2022-09-23T23:15:41.310Z,99.90
2022-09-23T23:20:45.954Z,99.90
2022-09-23T23:25:49.190Z,99.90
2022-09-23T23:30:52.456Z,99.90
2022-09-23T23:35:57.079Z,99.90
2022-09-23T23:41:03.357Z,99.90
2022-09-23T23:46:07.716Z,99.90
2022-09-23T23:51:13.367Z,99.90
2022-09-23T23:56:18.552Z,99.90
